Augsburg, Illinois
Current Conditions -  °F | °C
As of 8:55 PM on Sunday 23 Nov 2014 (Local Time) from KENL Reporting Station
Haze Haze  
Wind Chill: 52°   Ceiling: 200
Heat Index: 52°   Visibility: 1mi
Dew Point: 50°   Wind: 9mph
Humidity: 94%   Direction: 230°SW
Pressure: 29.27"   Gusts: NA
Location:  38.8463°N, 89.0894°W
Report Text: KENL 240255Z AUTO 23008KT 1SM BR OVC002 11/10 A2927 RMK AO2 P0001 60018 T01100100
Loading
Personal Weather Stations






























Interactive Weather Map New forecast layout! Learn more

10-Day Weather Forecast

Advertisements
Track Severe Weather on mobile